createdAt,value
2019-01-26T00:00:40.073Z,24.60
2019-01-26T00:03:11.845Z,26.43
2019-01-26T00:05:43.919Z,25.47
2019-01-26T00:08:15.942Z,30.47
2019-01-26T00:10:47.763Z,30.10
2019-01-26T00:13:19.447Z,25.57
2019-01-26T00:15:51.555Z,30.57
2019-01-26T00:18:23.723Z,28.67
2019-01-26T00:20:55.632Z,30.40
2019-01-26T00:23:28.001Z,31.13
2019-01-26T00:26:00.712Z,27.20
2019-01-26T00:28:33.203Z,28.10
2019-01-26T00:31:05.147Z,25.97
2019-01-26T00:33:37.262Z,27.60
2019-01-26T00:36:09.068Z,30.90
2019-01-26T00:38:41.473Z,33.53
2019-01-26T00:41:13.538Z,31.67
2019-01-26T00:43:45.577Z,40.50
2019-01-26T00:46:17.506Z,43.27
2019-01-26T00:48:49.402Z,39.93
2019-01-26T00:51:21.472Z,44.93
2019-01-26T00:53:53.264Z,46.43
2019-01-26T00:56:25.245Z,35.93
2019-01-26T00:58:56.400Z,40.67
2019-01-26T01:01:28.208Z,50.27
2019-01-26T01:03:59.535Z,39.40
2019-01-26T01:06:31.394Z,44.20
2019-01-26T01:09:02.808Z,41.07
2019-01-26T01:11:34.519Z,45.83
2019-01-26T01:14:05.465Z,46.67
2019-01-26T01:16:36.530Z,45.90
2019-01-26T01:19:08.672Z,40.90
2019-01-26T01:21:40.565Z,48.97
2019-01-26T01:24:11.440Z,43.03
2019-01-26T01:26:42.223Z,42.40
2019-01-26T01:29:12.891Z,44.70
2019-01-26T01:31:43.547Z,38.27
2019-01-26T01:34:15.781Z,45.53
2019-01-26T01:36:47.533Z,38.77
2019-01-26T01:39:19.324Z,45.53
2019-01-26T01:41:50.678Z,39.90
2019-01-26T01:44:22.738Z,42.43
2019-01-26T01:46:54.331Z,39.43
2019-01-26T01:49:25.412Z,39.87
2019-01-26T01:51:56.601Z,39.03
2019-01-26T01:54:28.185Z,38.43
2019-01-26T01:56:59.103Z,37.87
2019-01-26T01:59:29.910Z,41.80
2019-01-26T02:02:01.211Z,46.37
2019-01-26T02:04:32.403Z,50.73
2019-01-26T02:07:04.523Z,41.27
2019-01-26T02:09:35.742Z,41.10
2019-01-26T02:12:07.777Z,44.43
2019-01-26T02:14:39.100Z,53.03
2019-01-26T02:17:10.547Z,39.57
2019-01-26T02:19:41.257Z,45.70
2019-01-26T02:22:12.066Z,43.90
2019-01-26T02:24:43.359Z,42.27
2019-01-26T02:27:15.020Z,46.13
2019-01-26T02:29:46.661Z,37.50
2019-01-26T02:32:17.488Z,45.23
2019-01-26T02:34:49.544Z,44.87
2019-01-26T02:37:21.609Z,43.33
2019-01-26T02:39:53.109Z,37.70
2019-01-26T02:42:24.475Z,43.40
2019-01-26T02:44:55.534Z,33.23
2019-01-26T02:47:27.635Z,44.53
2019-01-26T02:49:59.398Z,47.27
2019-01-26T02:52:31.906Z,41.73
2019-01-26T02:55:04.387Z,51.47
2019-01-26T02:57:36.151Z,39.00
2019-01-26T03:00:16.853Z,32.17
2019-01-26T03:02:48.787Z,43.27
2019-01-26T03:05:20.916Z,33.30
2019-01-26T03:07:51.559Z,36.77
2019-01-26T03:10:24.368Z,41.57
2019-01-26T03:12:55.820Z,34.43
2019-01-26T03:15:27.660Z,32.90
2019-01-26T03:17:59.535Z,33.20
2019-01-26T03:20:31.113Z,37.83
2019-01-26T03:23:02.218Z,37.07
2019-01-26T03:25:33.456Z,36.97
2019-01-26T03:28:05.571Z,39.23
2019-01-26T03:30:36.697Z,38.53
2019-01-26T03:33:08.458Z,31.93
2019-01-26T03:35:40.371Z,34.97
2019-01-26T03:38:11.918Z,36.20
2019-01-26T03:40:43.504Z,35.37
2019-01-26T03:43:14.438Z,31.63
2019-01-26T03:45:45.371Z,34.57
2019-01-26T03:48:16.766Z,31.67
2019-01-26T03:50:48.490Z,32.37
2019-01-26T03:53:20.586Z,32.40
2019-01-26T03:55:52.364Z,36.33
2019-01-26T03:58:25.881Z,32.77
2019-01-26T04:00:57.868Z,40.07
2019-01-26T04:03:30.044Z,37.37
2019-01-26T04:06:01.418Z,37.77
2019-01-26T04:08:33.108Z,35.93
2019-01-26T04:11:04.491Z,32.70
2019-01-26T04:13:36.101Z,29.77
2019-01-26T04:16:07.215Z,31.13
2019-01-26T04:18:57.214Z,37.93
2019-01-26T04:21:28.888Z,29.93
2019-01-26T04:24:01.359Z,33.50
2019-01-26T04:26:33.574Z,30.13
2019-01-26T04:29:05.108Z,32.90
2019-01-26T04:31:37.048Z,35.13
2019-01-26T04:34:08.765Z,27.80
2019-01-26T04:36:40.462Z,28.67
2019-01-26T04:39:13.512Z,32.07
2019-01-26T04:41:45.863Z,27.93
2019-01-26T04:44:17.714Z,28.27
2019-01-26T04:46:49.576Z,30.80
2019-01-26T04:49:22.556Z,33.90
2019-01-26T04:51:53.307Z,35.37
2019-01-26T04:54:24.186Z,31.90
2019-01-26T04:56:55.936Z,26.13
2019-01-26T04:59:27.747Z,22.83
2019-01-26T05:01:59.613Z,33.27
2019-01-26T05:04:30.711Z,29.00
2019-01-26T05:07:02.347Z,28.13
2019-01-26T05:09:34.011Z,31.57
2019-01-26T05:12:05.056Z,34.60
2019-01-26T05:14:36.802Z,30.57
2019-01-26T05:17:08.129Z,25.97
2019-01-26T05:19:40.027Z,36.03
2019-01-26T05:22:11.367Z,27.93
2019-01-26T05:24:43.416Z,24.37
2019-01-26T05:27:15.188Z,28.83
2019-01-26T05:29:45.943Z,29.83
2019-01-26T05:32:17.702Z,27.47
2019-01-26T05:34:48.855Z,26.70
2019-01-26T05:37:20.273Z,25.67
2019-01-26T05:39:51.486Z,26.20
2019-01-26T05:42:22.199Z,30.97
2019-01-26T05:44:53.856Z,27.80
2019-01-26T05:47:25.541Z,29.83
2019-01-26T05:49:57.744Z,28.53
2019-01-26T05:52:28.242Z,24.70
2019-01-26T05:54:58.744Z,27.40
2019-01-26T05:57:48.466Z,28.13
2019-01-26T06:00:25.913Z,26.70
2019-01-26T06:02:56.672Z,27.03
2019-01-26T06:05:27.307Z,28.10
2019-01-26T06:07:58.083Z,28.40
2019-01-26T06:10:28.737Z,30.23
2019-01-26T06:12:59.279Z,21.60
2019-01-26T06:15:30.032Z,27.90
2019-01-26T06:18:00.886Z,36.00
2019-01-26T06:20:31.651Z,30.97
2019-01-26T06:23:02.278Z,27.30
2019-01-26T06:25:33.008Z,27.27
2019-01-26T06:28:03.617Z,32.17
2019-01-26T06:30:34.406Z,32.73
2019-01-26T06:33:04.966Z,26.67
2019-01-26T06:35:35.488Z,26.50
2019-01-26T06:38:06.431Z,26.83
2019-01-26T06:40:37.236Z,28.93
2019-01-26T06:43:07.839Z,27.13
2019-01-26T06:45:38.466Z,24.93
2019-01-26T06:48:09.165Z,26.37
2019-01-26T06:50:39.962Z,28.03
2019-01-26T06:53:10.488Z,22.00
2019-01-26T06:55:41.077Z,25.50
2019-01-26T06:58:11.644Z,26.43
2019-01-26T07:00:53.183Z,27.23
2019-01-26T07:03:23.855Z,26.57
2019-01-26T07:06:01.479Z,28.97
2019-01-26T07:08:32.252Z,25.93
2019-01-26T07:11:02.986Z,31.27
2019-01-26T07:13:33.724Z,22.37
2019-01-26T07:16:04.482Z,22.90
2019-01-26T07:18:35.085Z,32.03
2019-01-26T07:21:05.967Z,24.47
2019-01-26T07:23:36.612Z,24.87
2019-01-26T07:26:07.336Z,23.27
2019-01-26T07:28:38.028Z,20.47
2019-01-26T07:31:08.652Z,22.07
2019-01-26T07:33:39.197Z,26.30
2019-01-26T07:36:09.785Z,25.70
2019-01-26T07:38:40.459Z,32.27
2019-01-26T07:41:11.077Z,28.03
2019-01-26T07:43:41.823Z,30.87
2019-01-26T07:46:12.573Z,32.07
2019-01-26T07:48:44.505Z,31.03
2019-01-26T07:51:15.443Z,24.07
2019-01-26T07:53:47.279Z,27.23
2019-01-26T07:56:18.008Z,28.63
2019-01-26T07:58:48.735Z,29.67
2019-01-26T08:01:19.620Z,31.87
2019-01-26T08:03:50.347Z,32.23
2019-01-26T08:06:21.217Z,30.93
2019-01-26T08:08:52.005Z,29.40
2019-01-26T08:11:23.030Z,28.17
2019-01-26T08:13:53.644Z,34.03
2019-01-26T08:16:24.205Z,31.10
2019-01-26T08:18:55.016Z,26.70
2019-01-26T08:21:25.851Z,35.87
2019-01-26T08:23:56.357Z,27.57
2019-01-26T08:26:27.121Z,30.03
2019-01-26T08:28:58.018Z,28.70
2019-01-26T08:31:28.812Z,25.90
2019-01-26T08:33:59.361Z,30.60
2019-01-26T08:36:30.231Z,30.00
2019-01-26T08:39:01.061Z,28.83
2019-01-26T08:41:31.791Z,34.73
2019-01-26T08:44:02.535Z,33.33
2019-01-26T08:46:33.231Z,29.60
2019-01-26T08:49:04.172Z,36.30
2019-01-26T08:51:34.981Z,32.50
2019-01-26T08:54:05.646Z,32.47
2019-01-26T08:56:36.180Z,34.13
2019-01-26T08:59:07.070Z,36.57
2019-01-26T09:01:37.876Z,33.90
2019-01-26T09:04:27.726Z,41.13
2019-01-26T09:07:04.510Z,33.83
2019-01-26T09:09:35.284Z,36.90
2019-01-26T09:12:06.215Z,36.60
2019-01-26T09:14:38.144Z,31.37
2019-01-26T09:17:10.694Z,38.17
2019-01-26T09:19:41.353Z,35.17
2019-01-26T09:22:12.173Z,39.57
2019-01-26T09:24:42.868Z,46.03
2019-01-26T09:27:13.769Z,37.00
2019-01-26T09:29:44.467Z,36.93
2019-01-26T09:32:15.269Z,34.97
2019-01-26T09:34:45.803Z,35.27
2019-01-26T09:37:16.653Z,39.50
2019-01-26T09:39:47.559Z,38.53
2019-01-26T09:42:18.597Z,39.70
2019-01-26T09:44:49.295Z,36.23
2019-01-26T09:47:20.534Z,37.07
2019-01-26T09:49:51.782Z,36.57
2019-01-26T09:52:22.781Z,38.63
2019-01-26T09:54:53.689Z,38.13
2019-01-26T09:57:24.310Z,37.93
2019-01-26T09:59:55.225Z,36.90
2019-01-26T10:02:26.205Z,35.37
2019-01-26T10:04:57.032Z,38.37
2019-01-26T10:07:28.030Z,34.60
2019-01-26T10:09:58.869Z,36.27
2019-01-26T10:12:29.500Z,39.17
2019-01-26T10:15:00.192Z,38.80
2019-01-26T10:17:31.006Z,13.97
2019-01-26T10:20:01.868Z,9.60
2019-01-26T10:22:32.595Z,15.60
2019-01-26T10:25:03.246Z,14.23
2019-01-26T10:27:33.814Z,17.07
2019-01-26T10:30:04.795Z,14.30
2019-01-26T10:32:35.356Z,18.87
2019-01-26T10:35:06.343Z,15.27
2019-01-26T10:37:36.977Z,20.20
2019-01-26T10:40:21.371Z,21.30
2019-01-26T10:42:52.122Z,18.53
2019-01-26T10:45:22.665Z,24.20
2019-01-26T10:47:53.507Z,22.50
2019-01-26T10:50:24.428Z,21.03
2019-01-26T10:52:55.163Z,19.47
2019-01-26T10:55:25.980Z,22.17
2019-01-26T10:57:56.963Z,18.07
2019-01-26T11:00:27.815Z,22.20
2019-01-26T11:02:58.646Z,22.87
2019-01-26T11:05:29.488Z,25.83
2019-01-26T11:08:00.517Z,19.60
2019-01-26T11:10:31.474Z,25.73
2019-01-26T11:13:02.114Z,22.83
2019-01-26T11:15:32.817Z,28.37
2019-01-26T11:18:03.687Z,21.60
2019-01-26T11:20:34.465Z,22.87
2019-01-26T11:23:05.320Z,22.43
2019-01-26T11:25:54.997Z,29.93
2019-01-26T11:28:25.744Z,33.63
2019-01-26T11:30:56.647Z,37.10
2019-01-26T11:33:27.211Z,30.00
2019-01-26T11:35:57.721Z,28.57
2019-01-26T11:38:28.299Z,27.63
2019-01-26T11:40:59.063Z,26.23
2019-01-26T11:43:29.834Z,30.07
2019-01-26T11:46:25.432Z,26.73
2019-01-26T11:48:59.845Z,28.43
2019-01-26T11:51:49.443Z,24.43
2019-01-26T11:54:20.150Z,24.97
2019-01-26T11:56:56.745Z,29.30
2019-01-26T11:59:27.429Z,32.13
2019-01-26T12:02:20.060Z,24.67
2019-01-26T12:05:03.025Z,26.17
2019-01-26T12:07:35.638Z,27.37
2019-01-26T12:10:09.153Z,29.77
2019-01-26T12:12:39.772Z,25.30
2019-01-26T12:15:13.570Z,27.90
2019-01-26T12:17:44.383Z,29.17
2019-01-26T12:20:16.190Z,23.07
2019-01-26T12:22:47.325Z,30.37
2019-01-26T12:25:18.006Z,25.80
2019-01-26T12:27:48.766Z,26.43
2019-01-26T12:30:19.683Z,25.90
2019-01-26T12:32:50.339Z,23.07
2019-01-26T12:35:20.869Z,35.87
2019-01-26T12:37:51.557Z,29.63
2019-01-26T12:40:22.299Z,40.13
2019-01-26T12:42:53.031Z,29.40
2019-01-26T12:45:23.800Z,30.87
2019-01-26T12:47:54.510Z,38.33
2019-01-26T12:50:25.240Z,34.90
2019-01-26T12:52:55.899Z,28.17
2019-01-26T12:55:26.572Z,24.67
2019-01-26T12:57:57.382Z,35.70
2019-01-26T13:00:28.289Z,29.93
2019-01-26T13:02:58.853Z,29.67
2019-01-26T13:05:29.537Z,29.90
2019-01-26T13:08:00.210Z,28.03
2019-01-26T13:10:36.822Z,32.90
2019-01-26T13:13:07.876Z,36.80
2019-01-26T13:15:38.394Z,29.77
2019-01-26T13:18:09.465Z,31.73
2019-01-26T13:20:40.201Z,34.67
2019-01-26T13:23:10.931Z,25.87
2019-01-26T13:25:41.564Z,29.03
2019-01-26T13:28:12.610Z,29.17
2019-01-26T13:30:43.235Z,32.73
2019-01-26T13:33:13.789Z,35.83
2019-01-26T13:35:44.838Z,35.33
2019-01-26T13:38:15.718Z,26.67
2019-01-26T13:40:46.283Z,29.30
2019-01-26T13:43:17.096Z,27.63
2019-01-26T13:45:47.823Z,26.13
2019-01-26T13:48:18.474Z,39.67
2019-01-26T13:50:49.153Z,33.23
2019-01-26T13:53:19.972Z,36.83
2019-01-26T13:55:50.614Z,37.53
2019-01-26T13:58:21.521Z,41.20
2019-01-26T14:00:52.204Z,36.93
2019-01-26T14:03:22.926Z,32.70
2019-01-26T14:05:53.590Z,31.90
2019-01-26T14:08:24.649Z,29.47
2019-01-26T14:10:56.338Z,31.97
2019-01-26T14:13:27.331Z,35.63
2019-01-26T14:15:58.067Z,39.07
2019-01-26T14:18:28.859Z,35.33
2019-01-26T14:20:59.787Z,37.00
2019-01-26T14:23:30.715Z,35.60
2019-01-26T14:26:01.542Z,45.60
2019-01-26T14:28:32.367Z,37.13
2019-01-26T14:31:07.052Z,31.93
2019-01-26T14:33:39.235Z,34.20
2019-01-26T14:36:10.173Z,32.07
2019-01-26T14:38:41.107Z,26.63
2019-01-26T14:41:11.939Z,30.43
2019-01-26T14:43:43.816Z,35.83
2019-01-26T14:46:14.405Z,30.43
2019-01-26T14:48:45.455Z,30.37
2019-01-26T14:51:16.470Z,35.07
2019-01-26T14:53:47.767Z,35.40
2019-01-26T14:56:18.555Z,37.67
2019-01-26T14:58:49.352Z,32.53
2019-01-26T15:01:20.383Z,30.07
2019-01-26T15:03:51.231Z,36.77
2019-01-26T15:06:22.068Z,34.03
2019-01-26T15:08:52.932Z,31.27
2019-01-26T15:11:23.819Z,29.57
2019-01-26T15:13:54.439Z,32.30
2019-01-26T15:16:27.276Z,34.00
2019-01-26T15:18:59.811Z,30.57
2019-01-26T15:21:30.546Z,31.17
2019-01-26T15:24:01.272Z,26.50
2019-01-26T15:26:32.122Z,31.93
2019-01-26T15:29:02.883Z,23.43
2019-01-26T15:31:33.755Z,33.17
2019-01-26T15:34:04.422Z,31.07
2019-01-26T15:36:35.088Z,30.40
2019-01-26T15:39:08.856Z,35.57
2019-01-26T15:41:39.505Z,36.27
2019-01-26T15:44:10.265Z,36.63
2019-01-26T15:46:41.224Z,30.30
2019-01-26T15:49:12.092Z,40.90
2019-01-26T15:51:42.803Z,49.27
2019-01-26T15:54:13.571Z,42.10
2019-01-26T15:56:44.176Z,34.37
2019-01-26T15:59:14.988Z,31.73
2019-01-26T16:01:46.049Z,29.80
2019-01-26T16:04:16.881Z,39.30
2019-01-26T16:06:47.527Z,40.70
2019-01-26T16:09:18.397Z,32.07
2019-01-26T16:11:49.251Z,32.53
2019-01-26T16:14:19.900Z,30.57
2019-01-26T16:16:50.551Z,40.30
2019-01-26T16:19:21.297Z,39.57
2019-01-26T16:21:51.940Z,40.67
2019-01-26T16:24:22.629Z,26.70
2019-01-26T16:26:54.770Z,39.97
2019-01-26T16:29:25.583Z,42.37
2019-01-26T16:31:56.474Z,35.80
2019-01-26T16:34:27.077Z,29.30
2019-01-26T16:36:57.790Z,37.43
2019-01-26T16:39:28.806Z,35.07
2019-01-26T16:41:59.873Z,34.10
2019-01-26T16:44:32.085Z,29.90
2019-01-26T16:47:03.254Z,34.50
2019-01-26T16:49:34.123Z,34.83
2019-01-26T16:52:04.990Z,31.20
2019-01-26T16:54:35.576Z,27.87
2019-01-26T16:57:06.511Z,33.27
2019-01-26T16:59:37.198Z,35.57
2019-01-26T17:02:08.311Z,36.77
2019-01-26T17:04:38.998Z,34.80
2019-01-26T17:07:09.754Z,41.63
2019-01-26T17:09:40.672Z,34.53
2019-01-26T17:12:11.519Z,39.60
2019-01-26T17:14:44.692Z,30.33
2019-01-26T17:17:16.621Z,36.67
2019-01-26T17:19:47.439Z,29.10
2019-01-26T17:22:18.433Z,34.33
2019-01-26T17:24:49.159Z,28.37
2019-01-26T17:27:20.179Z,26.23
2019-01-26T17:29:51.199Z,30.50
2019-01-26T17:32:22.072Z,29.43
2019-01-26T17:34:52.794Z,40.33
2019-01-26T17:37:23.365Z,39.27
2019-01-26T17:39:54.037Z,36.27
2019-01-26T17:42:24.856Z,32.80
2019-01-26T17:44:55.504Z,33.40
2019-01-26T17:47:26.391Z,29.33
2019-01-26T17:49:57.131Z,27.60
2019-01-26T17:52:27.668Z,29.30
2019-01-26T17:54:58.207Z,28.63
2019-01-26T17:57:29.004Z,23.87
2019-01-26T18:00:01.182Z,29.57
2019-01-26T18:02:31.935Z,36.93
2019-01-26T18:05:02.816Z,29.20
2019-01-26T18:07:33.561Z,31.07
2019-01-26T18:10:04.936Z,32.13
2019-01-26T18:12:35.448Z,34.23
2019-01-26T18:15:07.552Z,29.30
2019-01-26T18:17:38.191Z,29.57
2019-01-26T18:20:11.760Z,26.80
2019-01-26T18:22:42.369Z,38.63
2019-01-26T18:25:13.138Z,32.37
2019-01-26T18:27:43.750Z,26.27
2019-01-26T18:30:17.709Z,23.20
2019-01-26T18:32:48.302Z,29.73
2019-01-26T18:35:18.890Z,28.73
2019-01-26T18:37:49.435Z,31.93
2019-01-26T18:40:22.215Z,24.00
2019-01-26T18:42:53.227Z,29.60
2019-01-26T18:45:25.593Z,26.93
2019-01-26T18:47:56.302Z,25.53
2019-01-26T18:50:28.878Z,29.73
2019-01-26T18:52:59.507Z,29.10
2019-01-26T18:55:30.185Z,27.57
2019-01-26T18:58:00.797Z,31.23
2019-01-26T19:00:34.014Z,27.33
2019-01-26T19:03:20.968Z,30.63
2019-01-26T19:05:52.704Z,25.63
2019-01-26T19:08:23.321Z,32.73
2019-01-26T19:10:53.857Z,30.97
2019-01-26T19:13:24.482Z,26.37
2019-01-26T19:15:54.998Z,27.30
2019-01-26T19:18:25.605Z,25.73
2019-01-26T19:21:02.860Z,36.67
2019-01-26T19:23:28.690Z,28.47
2019-01-26T19:26:05.571Z,19.10
2019-01-26T19:28:36.574Z,22.57
2019-01-26T19:31:07.549Z,23.67
2019-01-26T19:33:38.242Z,26.93
2019-01-26T19:36:09.055Z,28.67
2019-01-26T19:38:39.641Z,27.77
2019-01-26T19:41:10.297Z,19.87
2019-01-26T19:43:40.987Z,34.03
2019-01-26T19:46:11.663Z,35.00
2019-01-26T19:48:42.174Z,34.20
2019-01-26T19:51:12.941Z,35.07
2019-01-26T19:53:43.680Z,33.20
2019-01-26T19:56:14.359Z,24.00
2019-01-26T19:58:45.157Z,31.63
2019-01-26T20:01:15.981Z,32.20
2019-01-26T20:03:46.812Z,25.57
2019-01-26T20:06:17.851Z,37.03
2019-01-26T20:08:48.482Z,21.57
2019-01-26T20:11:21.728Z,22.83
2019-01-26T20:13:52.369Z,27.13
2019-01-26T20:16:22.938Z,28.30
2019-01-26T20:18:53.523Z,34.13
2019-01-26T20:21:24.485Z,22.30
2019-01-26T20:23:55.047Z,36.30
2019-01-26T20:26:25.762Z,27.87
2019-01-26T20:28:56.352Z,24.43
2019-01-26T20:31:26.953Z,30.27
2019-01-26T20:33:57.847Z,31.57
2019-01-26T20:36:28.535Z,30.03
2019-01-26T20:38:59.464Z,33.13
2019-01-26T20:41:30.238Z,31.33
2019-01-26T20:44:00.880Z,35.37
2019-01-26T20:46:31.529Z,35.33
2019-01-26T20:49:02.232Z,31.43
2019-01-26T20:51:32.906Z,22.30
2019-01-26T20:54:03.571Z,40.97
2019-01-26T20:56:34.130Z,24.53
2019-01-26T20:59:05.407Z,29.97
2019-01-26T21:01:35.990Z,31.73
2019-01-26T21:04:06.688Z,21.43
2019-01-26T21:06:37.370Z,42.37
2019-01-26T21:09:10.208Z,39.03
2019-01-26T21:11:40.924Z,36.20
2019-01-26T21:14:11.787Z,36.03
2019-01-26T21:16:42.532Z,40.40
2019-01-26T21:19:13.254Z,27.37
2019-01-26T21:21:44.043Z,40.87
2019-01-26T21:24:14.870Z,37.73
2019-01-26T21:26:45.597Z,29.57
2019-01-26T21:29:16.240Z,44.13
2019-01-26T21:31:46.853Z,31.50
2019-01-26T21:34:17.504Z,45.43
2019-01-26T21:36:48.195Z,38.50
2019-01-26T21:39:18.793Z,35.87
2019-01-26T21:41:49.521Z,49.67
2019-01-26T21:44:20.227Z,48.13
2019-01-26T21:46:51.081Z,34.63
2019-01-26T21:49:22.315Z,37.27
2019-01-26T21:51:53.087Z,42.97
2019-01-26T21:54:23.593Z,42.17
2019-01-26T21:56:54.218Z,33.93
2019-01-26T21:59:24.728Z,45.60
2019-01-26T22:01:55.562Z,34.33
2019-01-26T22:04:26.176Z,43.03
2019-01-26T22:06:56.730Z,46.63
2019-01-26T22:09:27.222Z,39.23
2019-01-26T22:11:57.870Z,42.67
2019-01-26T22:14:28.405Z,43.43
2019-01-26T22:16:58.932Z,55.47
2019-01-26T22:19:29.570Z,57.23
2019-01-26T22:22:00.334Z,35.83
2019-01-26T22:24:30.851Z,33.27
2019-01-26T22:27:01.498Z,40.27
2019-01-26T22:29:32.022Z,41.73
2019-01-26T22:32:02.719Z,36.93
2019-01-26T22:34:33.502Z,43.87
2019-01-26T22:37:04.111Z,40.70
2019-01-26T22:39:35.146Z,40.17
2019-01-26T22:42:06.013Z,30.27
2019-01-26T22:44:36.998Z,52.30
2019-01-26T22:47:07.774Z,46.47
2019-01-26T22:49:38.660Z,54.17
2019-01-26T22:52:09.191Z,44.43
2019-01-26T22:54:39.762Z,49.60
2019-01-26T22:57:10.480Z,44.07
2019-01-26T22:59:41.102Z,37.83
2019-01-26T23:02:12.086Z,37.53
2019-01-26T23:05:15.866Z,44.90
2019-01-26T23:07:56.279Z,43.87
2019-01-26T23:11:02.371Z,44.63
2019-01-26T23:13:52.963Z,41.37
2019-01-26T23:16:59.149Z,30.13
2019-01-26T23:19:56.733Z,40.67
2019-01-26T23:23:07.102Z,29.30
2019-01-26T23:25:59.814Z,35.90
2019-01-26T23:28:56.628Z,39.23
2019-01-26T23:31:27.884Z,39.07
2019-01-26T23:34:00.253Z,42.43
2019-01-26T23:36:38.044Z,35.20
2019-01-26T23:39:11.029Z,46.50
2019-01-26T23:41:42.454Z,36.53
2019-01-26T23:44:14.232Z,41.03
2019-01-26T23:46:45.303Z,41.93
2019-01-26T23:49:17.663Z,42.67
2019-01-26T23:51:49.631Z,45.83
2019-01-26T23:54:21.733Z,48.13
2019-01-26T23:56:54.239Z,40.20
2019-01-26T23:59:26.651Z,43.43
